This is the latest recevied weather packets stored in our database for station/object OE5RPP. If no packets are shown the sender has not sent any weather packets the latest 1 day(s).
| Time | Temp. | Humidity | Pressure | Rain* | Wind** | Luminosity | Snow |
|---|---|---|---|---|---|---|---|
| 1778004666 | 15° C | 48% | 1008.9 hPa | 0 mm | 0 m/s | - | - |
| 1778004066 | 15° C | 49% | 1008.9 hPa | 0 mm | 1.34 m/s, 202° | - | - |
| 1778003466 | 15° C | 51% | 1008.9 hPa | 0 mm | 1.34 m/s, 225° | - | - |
| 1778002865 | 14.44° C | 53% | 1008.9 hPa | 0 mm | 2.24 m/s, 337° | - | - |
| 1778002267 | 14.44° C | 51% | 1008.9 hPa | 0 mm | 2.68 m/s, 337° | - | - |
| 1778001667 | 15° C | 49% | 1008.9 hPa | 0 mm | 3.13 m/s, 292° | - | - |
| 1778001066 | 15° C | 46% | 1008.9 hPa | 0 mm | 3.13 m/s, 337° | - | - |
| 1778000467 | 15.56° C | 41% | 1008.9 hPa | 0 mm | 3.58 m/s, 0° | - | - |
| 1777999866 | 15.56° C | 35% | 1008.9 hPa | 0 mm | 5.36 m/s, 292° | - | - |
| 1777999266 | 16.67° C | 32% | 1008.9 hPa | 0 mm | 7.15 m/s, 270° | - | - |
| 1777998666 | 17.78° C | 21% | 1007.9 hPa | 0 mm | 4.92 m/s, 292° | - | - |
| 1777998066 | 18.89° C | 27% | 1007.9 hPa | 0 mm | 3.58 m/s, 225° | - | - |
| 1777997465 | 20.56° C | 20% | 1007.9 hPa | 0 mm | 3.13 m/s, 315° | - | - |
| 1777996867 | 22.22° C | 18% | 1007.9 hPa | 0 mm | 0 m/s | - | - |
| 1777996267 | 22.78° C | 18% | 1007.9 hPa | 0 mm | 0 m/s | - | - |
| 1777995666 | 23.33° C | 18% | 1007.9 hPa | 0 mm | 0 m/s | - | - |
| 1777995065 | 23.89° C | 18% | 1007.9 hPa | 0 mm | 0.45 m/s, 67° | - | - |
| 1777994465 | 23.89° C | 18% | 1007.9 hPa | 0 mm | 0 m/s | - | - |
| 1777993866 | 24.44° C | 18% | 1007.9 hPa | 0 mm | 0 m/s | - | - |
| 1777993265 | 25° C | 17% | 1007.9 hPa | 0 mm | 0.45 m/s, 67° | - | - |
| 1777992666 | 25.56° C | 17% | 1007.9 hPa | 0 mm | 1.34 m/s, 67° | - | - |
| 1777992066 | 26.11° C | 17% | 1007.9 hPa | 0 mm | 1.79 m/s, 45° | - | - |
| 1777991466 | 26.67° C | 15% | 1007.9 hPa | 0 mm | 1.79 m/s, 90° | - | - |
| 1777990866 | 27.22° C | 15% | 1007.9 hPa | 0 mm | 1.79 m/s, 112° | - | - |
| 1777990265 | 27.22° C | 15% | 1007.9 hPa | 0 mm | 2.24 m/s, 0° | - | - |
* Rain latest hour (hover to see other rain measurements)
** Current wind speed in m/s (hover to see current wind gust speed)